sensor_id;sensor_type;location;lat;lon;timestamp;P1;durP1;ratioP1;P2;durP2;ratioP2
8572;SDS011;4324;42.012;24.872;2024-02-14T00:00:09;0.80;;;0.80;;
8572;SDS011;4324;42.012;24.872;2024-02-14T00:02:39;0.80;;;0.77;;
8572;SDS011;4324;42.012;24.872;2024-02-14T00:05:07;0.80;;;0.80;;
8572;SDS011;4324;42.012;24.872;2024-02-14T00:07:35;1.07;;;0.80;;
8572;SDS011;4324;42.012;24.872;2024-02-14T00:10:03;0.80;;;0.80;;
8572;SDS011;4324;42.012;24.872;2024-02-14T00:12:31;0.73;;;0.73;;
8572;SDS011;4324;42.012;24.872;2024-02-14T00:14:59;0.70;;;0.60;;
8572;SDS011;4324;42.012;24.872;2024-02-14T00:17:30;0.77;;;0.70;;
8572;SDS011;4324;42.012;24.872;2024-02-14T00:19:57;0.70;;;0.60;;
8572;SDS011;4324;42.012;24.872;2024-02-14T00:22:24;0.70;;;0.70;;
8572;SDS011;4324;42.012;24.872;2024-02-14T00:24:53;0.60;;;0.60;;
8572;SDS011;4324;42.012;24.872;2024-02-14T00:27:20;1.50;;;0.97;;
8572;SDS011;4324;42.012;24.872;2024-02-14T00:29:47;1.00;;;0.90;;
8572;SDS011;4324;42.012;24.872;2024-02-14T00:32:15;1.13;;;0.80;;
8572;SDS011;4324;42.012;24.872;2024-02-14T00:34:44;0.83;;;0.80;;
8572;SDS011;4324;42.012;24.872;2024-02-14T00:37:11;0.83;;;0.83;;
8572;SDS011;4324;42.012;24.872;2024-02-14T00:39:39;0.70;;;0.70;;
8572;SDS011;4324;42.012;24.872;2024-02-14T00:42:06;0.80;;;0.80;;
8572;SDS011;4324;42.012;24.872;2024-02-14T00:44:34;0.80;;;0.80;;
8572;SDS011;4324;42.012;24.872;2024-02-14T00:47:01;1.00;;;0.90;;
8572;SDS011;4324;42.012;24.872;2024-02-14T00:49:28;1.00;;;0.80;;
8572;SDS011;4324;42.012;24.872;2024-02-14T00:51:58;0.80;;;0.80;;
8572;SDS011;4324;42.012;24.872;2024-02-14T00:54:26;1.00;;;0.90;;
8572;SDS011;4324;42.012;24.872;2024-02-14T00:56:53;0.80;;;0.70;;
8572;SDS011;4324;42.012;24.872;2024-02-14T00:59:20;1.00;;;0.90;;
8572;SDS011;4324;42.012;24.872;2024-02-14T01:01:47;0.83;;;0.83;;
8572;SDS011;4324;42.012;24.872;2024-02-14T01:04:16;1.00;;;0.90;;
8572;SDS011;4324;42.012;24.872;2024-02-14T01:06:43;0.90;;;0.90;;
8572;SDS011;4324;42.012;24.872;2024-02-14T01:09:12;1.27;;;0.90;;
8572;SDS011;4324;42.012;24.872;2024-02-14T01:11:39;0.70;;;0.70;;
8572;SDS011;4324;42.012;24.872;2024-02-14T01:14:07;1.10;;;1.00;;
8572;SDS011;4324;42.012;24.872;2024-02-14T01:16:34;0.80;;;0.80;;
8572;SDS011;4324;42.012;24.872;2024-02-14T01:19:08;1.20;;;1.10;;
8572;SDS011;4324;42.012;24.872;2024-02-14T01:21:36;0.80;;;0.80;;
8572;SDS011;4324;42.012;24.872;2024-02-14T01:24:07;1.53;;;1.43;;
8572;SDS011;4324;42.012;24.872;2024-02-14T01:26:36;0.80;;;0.80;;
8572;SDS011;4324;42.012;24.872;2024-02-14T01:29:03;0.80;;;0.80;;
8572;SDS011;4324;42.012;24.872;2024-02-14T01:31:31;0.80;;;0.80;;
8572;SDS011;4324;42.012;24.872;2024-02-14T01:33:59;1.57;;;1.00;;
8572;SDS011;4324;42.012;24.872;2024-02-14T01:36:27;1.13;;;1.00;;
8572;SDS011;4324;42.012;24.872;2024-02-14T01:38:55;1.10;;;1.00;;
8572;SDS011;4324;42.012;24.872;2024-02-14T01:41:22;1.20;;;1.00;;
8572;SDS011;4324;42.012;24.872;2024-02-14T01:43:51;0.97;;;0.90;;
8572;SDS011;4324;42.012;24.872;2024-02-14T01:46:19;1.23;;;1.13;;
8572;SDS011;4324;42.012;24.872;2024-02-14T01:48:47;1.07;;;0.93;;
8572;SDS011;4324;42.012;24.872;2024-02-14T01:51:15;1.20;;;1.10;;
8572;SDS011;4324;42.012;24.872;2024-02-14T01:53:44;1.03;;;0.93;;
8572;SDS011;4324;42.012;24.872;2024-02-14T01:56:12;1.20;;;1.10;;
8572;SDS011;4324;42.012;24.872;2024-02-14T01:58:43;1.10;;;1.00;;
8572;SDS011;4324;42.012;24.872;2024-02-14T02:01:12;1.13;;;1.03;;
8572;SDS011;4324;42.012;24.872;2024-02-14T02:03:40;1.00;;;0.90;;
8572;SDS011;4324;42.012;24.872;2024-02-14T02:06:07;1.43;;;1.33;;
8572;SDS011;4324;42.012;24.872;2024-02-14T02:08:34;1.00;;;1.00;;
8572;SDS011;4324;42.012;24.872;2024-02-14T02:11:02;1.20;;;1.10;;
8572;SDS011;4324;42.012;24.872;2024-02-14T02:13:31;1.10;;;1.00;;
8572;SDS011;4324;42.012;24.872;2024-02-14T02:15:59;0.70;;;0.70;;
8572;SDS011;4324;42.012;24.872;2024-02-14T02:18:32;1.63;;;1.10;;
8572;SDS011;4324;42.012;24.872;2024-02-14T02:20:59;1.10;;;1.00;;
8572;SDS011;4324;42.012;24.872;2024-02-14T02:23:30;0.97;;;0.97;;
8572;SDS011;4324;42.012;24.872;2024-02-14T02:25:58;1.20;;;1.10;;
8572;SDS011;4324;42.012;24.872;2024-02-14T02:28:25;1.10;;;1.00;;
8572;SDS011;4324;42.012;24.872;2024-02-14T02:30:52;1.00;;;1.00;;
8572;SDS011;4324;42.012;24.872;2024-02-14T02:33:21;1.10;;;1.10;;
8572;SDS011;4324;42.012;24.872;2024-02-14T02:35:48;1.20;;;1.10;;
8572;SDS011;4324;42.012;24.872;2024-02-14T02:38:19;1.03;;;0.90;;
8572;SDS011;4324;42.012;24.872;2024-02-14T02:40:52;1.37;;;1.27;;
8572;SDS011;4324;42.012;24.872;2024-02-14T02:43:19;1.37;;;1.27;;
8572;SDS011;4324;42.012;24.872;2024-02-14T02:45:47;1.40;;;1.30;;
8572;SDS011;4324;42.012;24.872;2024-02-14T02:48:14;1.00;;;0.90;;
8572;SDS011;4324;42.012;24.872;2024-02-14T02:50:41;2.10;;;1.30;;
8572;SDS011;4324;42.012;24.872;2024-02-14T02:53:09;1.67;;;1.57;;
8572;SDS011;4324;42.012;24.872;2024-02-14T02:55:36;1.43;;;1.33;;
8572;SDS011;4324;42.012;24.872;2024-02-14T02:58:05;1.40;;;1.30;;
8572;SDS011;4324;42.012;24.872;2024-02-14T03:00:32;1.33;;;1.23;;
8572;SDS011;4324;42.012;24.872;2024-02-14T03:03:00;1.73;;;1.63;;
8572;SDS011;4324;42.012;24.872;2024-02-14T03:05:29;3.10;;;2.80;;
8572;SDS011;4324;42.012;24.872;2024-02-14T03:07:59;1.57;;;1.47;;
8572;SDS011;4324;42.012;24.872;2024-02-14T03:10:26;1.50;;;1.40;;
8572;SDS011;4324;42.012;24.872;2024-02-14T03:12:54;1.70;;;1.60;;
8572;SDS011;4324;42.012;24.872;2024-02-14T03:15:23;1.90;;;1.73;;
8572;SDS011;4324;42.012;24.872;2024-02-14T03:17:51;1.67;;;1.57;;
8572;SDS011;4324;42.012;24.872;2024-02-14T03:20:18;1.70;;;1.60;;
8572;SDS011;4324;42.012;24.872;2024-02-14T03:22:45;1.67;;;1.53;;
8572;SDS011;4324;42.012;24.872;2024-02-14T03:25:12;1.93;;;1.80;;
8572;SDS011;4324;42.012;24.872;2024-02-14T03:27:42;2.53;;;1.80;;
8572;SDS011;4324;42.012;24.872;2024-02-14T03:30:16;1.83;;;1.70;;
8572;SDS011;4324;42.012;24.872;2024-02-14T03:32:44;2.50;;;2.20;;
8572;SDS011;4324;42.012;24.872;2024-02-14T03:35:12;2.17;;;2.00;;
8572;SDS011;4324;42.012;24.872;2024-02-14T03:37:40;1.57;;;1.47;;
8572;SDS011;4324;42.012;24.872;2024-02-14T03:40:14;2.23;;;2.00;;
8572;SDS011;4324;42.012;24.872;2024-02-14T03:42:45;2.30;;;2.10;;
8572;SDS011;4324;42.012;24.872;2024-02-14T03:45:13;2.80;;;2.50;;
8572;SDS011;4324;42.012;24.872;2024-02-14T03:47:40;4.03;;;2.77;;
8572;SDS011;4324;42.012;24.872;2024-02-14T03:50:09;1.83;;;1.70;;
8572;SDS011;4324;42.012;24.872;2024-02-14T03:52:37;2.93;;;1.67;;
8572;SDS011;4324;42.012;24.872;2024-02-14T03:55:08;2.20;;;2.00;;
8572;SDS011;4324;42.012;24.872;2024-02-14T03:57:39;1.80;;;1.70;;
8572;SDS011;4324;42.012;24.872;2024-02-14T04:00:06;3.10;;;2.80;;
8572;SDS011;4324;42.012;24.872;2024-02-14T04:02:35;1.90;;;1.80;;
8572;SDS011;4324;42.012;24.872;2024-02-14T04:05:03;2.03;;;1.80;;
8572;SDS011;4324;42.012;24.872;2024-02-14T04:07:33;1.80;;;1.70;;
8572;SDS011;4324;42.012;24.872;2024-02-14T04:10:01;2.07;;;1.97;;
8572;SDS011;4324;42.012;24.872;2024-02-14T04:12:29;2.07;;;1.90;;
8572;SDS011;4324;42.012;24.872;2024-02-14T04:14:56;1.87;;;1.77;;
8572;SDS011;4324;42.012;24.872;2024-02-14T04:17:24;2.20;;;2.00;;
8572;SDS011;4324;42.012;24.872;2024-02-14T04:19:51;2.10;;;1.63;;
8572;SDS011;4324;42.012;24.872;2024-02-14T04:22:19;2.37;;;2.17;;
8572;SDS011;4324;42.012;24.872;2024-02-14T04:24:48;2.60;;;2.40;;
8572;SDS011;4324;42.012;24.872;2024-02-14T04:27:15;1.83;;;1.73;;
8572;SDS011;4324;42.012;24.872;2024-02-14T04:29:47;2.87;;;2.20;;
8572;SDS011;4324;42.012;24.872;2024-02-14T04:32:14;2.43;;;2.23;;
8572;SDS011;4324;42.012;24.872;2024-02-14T04:34:42;2.50;;;2.30;;
8572;SDS011;4324;42.012;24.872;2024-02-14T04:37:13;2.10;;;1.77;;
8572;SDS011;4324;42.012;24.872;2024-02-14T04:39:45;2.23;;;2.03;;
8572;SDS011;4324;42.012;24.872;2024-02-14T04:42:14;2.73;;;2.43;;
8572;SDS011;4324;42.012;24.872;2024-02-14T04:44:41;2.93;;;2.67;;
8572;SDS011;4324;42.012;24.872;2024-02-14T04:47:09;3.27;;;2.97;;
8572;SDS011;4324;42.012;24.872;2024-02-14T04:49:47;1.87;;;1.73;;
8572;SDS011;4324;42.012;24.872;2024-02-14T04:52:18;2.30;;;2.10;;
8572;SDS011;4324;42.012;24.872;2024-02-14T04:54:45;3.50;;;3.20;;
8572;SDS011;4324;42.012;24.872;2024-02-14T04:57:14;2.63;;;2.27;;
8572;SDS011;4324;42.012;24.872;2024-02-14T04:59:41;2.37;;;2.17;;
8572;SDS011;4324;42.012;24.872;2024-02-14T05:02:09;2.80;;;2.60;;
8572;SDS011;4324;42.012;24.872;2024-02-14T05:04:37;2.93;;;2.63;;
8572;SDS011;4324;42.012;24.872;2024-02-14T05:07:05;4.20;;;3.80;;
8572;SDS011;4324;42.012;24.872;2024-02-14T05:09:33;2.53;;;2.33;;
8572;SDS011;4324;42.012;24.872;2024-02-14T05:12:00;4.03;;;2.20;;
8572;SDS011;4324;42.012;24.872;2024-02-14T05:14:30;3.00;;;2.70;;
8572;SDS011;4324;42.012;24.872;2024-02-14T05:16:58;3.77;;;3.37;;
8572;SDS011;4324;42.012;24.872;2024-02-14T05:19:26;3.00;;;2.73;;
8572;SDS011;4324;42.012;24.872;2024-02-14T05:21:54;3.03;;;2.20;;
8572;SDS011;4324;42.012;24.872;2024-02-14T05:24:22;3.70;;;2.97;;
8572;SDS011;4324;42.012;24.872;2024-02-14T05:26:52;2.10;;;1.70;;
8572;SDS011;4324;42.012;24.872;2024-02-14T05:29:19;2.67;;;2.47;;
8572;SDS011;4324;42.012;24.872;2024-02-14T05:31:49;4.47;;;4.07;;
8572;SDS011;4324;42.012;24.872;2024-02-14T05:34:20;8.70;;;6.67;;
8572;SDS011;4324;42.012;24.872;2024-02-14T05:36:48;6.00;;;4.17;;
8572;SDS011;4324;42.012;24.872;2024-02-14T05:39:15;1.87;;;1.43;;
8572;SDS011;4324;42.012;24.872;2024-02-14T05:41:42;21.37;;;14.80;;
8572;SDS011;4324;42.012;24.872;2024-02-14T05:44:10;3.07;;;2.83;;
8572;SDS011;4324;42.012;24.872;2024-02-14T05:46:37;4.60;;;4.20;;
8572;SDS011;4324;42.012;24.872;2024-02-14T05:49:06;10.83;;;8.90;;
8572;SDS011;4324;42.012;24.872;2024-02-14T05:51:33;2.60;;;2.40;;
8572;SDS011;4324;42.012;24.872;2024-02-14T05:54:00;4.17;;;3.77;;
8572;SDS011;4324;42.012;24.872;2024-02-14T05:56:28;2.70;;;1.90;;
8572;SDS011;4324;42.012;24.872;2024-02-14T05:58:55;15.50;;;14.30;;
8572;SDS011;4324;42.012;24.872;2024-02-14T06:01:22;3.00;;;2.70;;
8572;SDS011;4324;42.012;24.872;2024-02-14T06:03:50;3.57;;;3.20;;
8572;SDS011;4324;42.012;24.872;2024-02-14T06:06:19;4.33;;;3.87;;
8572;SDS011;4324;42.012;24.872;2024-02-14T06:08:46;3.67;;;3.37;;
8572;SDS011;4324;42.012;24.872;2024-02-14T06:11:14;4.00;;;2.70;;
8572;SDS011;4324;42.012;24.872;2024-02-14T06:13:41;3.37;;;2.53;;
8572;SDS011;4324;42.012;24.872;2024-02-14T06:16:09;3.70;;;2.80;;
8572;SDS011;4324;42.012;24.872;2024-02-14T06:18:37;4.20;;;3.80;;
8572;SDS011;4324;42.012;24.872;2024-02-14T06:21:05;3.33;;;3.03;;
8572;SDS011;4324;42.012;24.872;2024-02-14T06:23:34;1.83;;;1.73;;
8572;SDS011;4324;42.012;24.872;2024-02-14T06:26:02;2.67;;;2.47;;
8572;SDS011;4324;42.012;24.872;2024-02-14T06:28:30;3.03;;;2.73;;
8572;SDS011;4324;42.012;24.872;2024-02-14T06:30:58;3.40;;;3.10;;
8572;SDS011;4324;42.012;24.872;2024-02-14T06:33:26;3.30;;;3.00;;
8572;SDS011;4324;42.012;24.872;2024-02-14T06:35:53;3.10;;;2.90;;
8572;SDS011;4324;42.012;24.872;2024-02-14T06:38:21;3.50;;;3.20;;
8572;SDS011;4324;42.012;24.872;2024-02-14T06:40:50;5.97;;;5.40;;
8572;SDS011;4324;42.012;24.872;2024-02-14T06:43:17;2.93;;;2.63;;
8572;SDS011;4324;42.012;24.872;2024-02-14T06:45:46;2.80;;;2.60;;
8572;SDS011;4324;42.012;24.872;2024-02-14T06:48:13;4.50;;;3.70;;
8572;SDS011;4324;42.012;24.872;2024-02-14T06:50:43;2.80;;;2.60;;
8572;SDS011;4324;42.012;24.872;2024-02-14T06:53:13;3.20;;;3.00;;
8572;SDS011;4324;42.012;24.872;2024-02-14T06:55:41;3.50;;;3.20;;
8572;SDS011;4324;42.012;24.872;2024-02-14T06:58:10;2.13;;;1.93;;
8572;SDS011;4324;42.012;24.872;2024-02-14T07:00:39;2.80;;;2.60;;
8572;SDS011;4324;42.012;24.872;2024-02-14T07:03:10;3.47;;;3.17;;
8572;SDS011;4324;42.012;24.872;2024-02-14T07:05:46;7.83;;;5.87;;
8572;SDS011;4324;42.012;24.872;2024-02-14T07:08:14;6.47;;;5.20;;
8572;SDS011;4324;42.012;24.872;2024-02-14T07:10:44;3.20;;;2.80;;
8572;SDS011;4324;42.012;24.872;2024-02-14T07:13:32;2.97;;;2.77;;
8572;SDS011;4324;42.012;24.872;2024-02-14T07:16:03;3.50;;;3.20;;
8572;SDS011;4324;42.012;24.872;2024-02-14T07:18:36;3.17;;;2.87;;
8572;SDS011;4324;42.012;24.872;2024-02-14T07:21:03;4.30;;;3.90;;
8572;SDS011;4324;42.012;24.872;2024-02-14T07:23:31;3.57;;;3.27;;
8572;SDS011;4324;42.012;24.872;2024-02-14T07:25:59;4.57;;;4.17;;
8572;SDS011;4324;42.012;24.872;2024-02-14T07:28:35;4.20;;;3.90;;
8572;SDS011;4324;42.012;24.872;2024-02-14T07:31:18;4.07;;;3.67;;
8572;SDS011;4324;42.012;24.872;2024-02-14T07:33:45;4.67;;;3.57;;
8572;SDS011;4324;42.012;24.872;2024-02-14T07:36:13;4.77;;;4.37;;
8572;SDS011;4324;42.012;24.872;2024-02-14T07:38:42;6.27;;;5.10;;
8572;SDS011;4324;42.012;24.872;2024-02-14T07:41:12;4.90;;;3.67;;
8572;SDS011;4324;42.012;24.872;2024-02-14T07:43:41;3.50;;;3.00;;
8572;SDS011;4324;42.012;24.872;2024-02-14T07:46:08;4.20;;;3.80;;
8572;SDS011;4324;42.012;24.872;2024-02-14T07:48:37;6.37;;;4.37;;
8572;SDS011;4324;42.012;24.872;2024-02-14T07:51:09;5.57;;;4.00;;
8572;SDS011;4324;42.012;24.872;2024-02-14T07:53:36;5.37;;;4.83;;
8572;SDS011;4324;42.012;24.872;2024-02-14T07:56:05;4.67;;;4.20;;
8572;SDS011;4324;42.012;24.872;2024-02-14T07:58:33;6.63;;;4.67;;
8572;SDS011;4324;42.012;24.872;2024-02-14T08:01:02;5.17;;;4.40;;
8572;SDS011;4324;42.012;24.872;2024-02-14T08:03:36;8.63;;;5.47;;
8572;SDS011;4324;42.012;24.872;2024-02-14T08:06:04;5.10;;;4.60;;
8572;SDS011;4324;42.012;24.872;2024-02-14T08:08:38;3.77;;;3.47;;
8572;SDS011;4324;42.012;24.872;2024-02-14T08:11:06;4.47;;;4.07;;
8572;SDS011;4324;42.012;24.872;2024-02-14T08:13:35;7.13;;;5.90;;
8572;SDS011;4324;42.012;24.872;2024-02-14T08:16:06;6.70;;;5.53;;
8572;SDS011;4324;42.012;24.872;2024-02-14T08:18:34;8.00;;;6.93;;
8572;SDS011;4324;42.012;24.872;2024-02-14T08:21:03;9.07;;;6.63;;
8572;SDS011;4324;42.012;24.872;2024-02-14T08:23:30;10.00;;;8.10;;
8572;SDS011;4324;42.012;24.872;2024-02-14T08:26:01;7.33;;;5.30;;
8572;SDS011;4324;42.012;24.872;2024-02-14T08:28:38;7.37;;;5.77;;
8572;SDS011;4324;42.012;24.872;2024-02-14T08:31:11;6.93;;;5.80;;
8572;SDS011;4324;42.012;24.872;2024-02-14T08:33:41;4.80;;;4.30;;
8572;SDS011;4324;42.012;24.872;2024-02-14T08:36:19;6.77;;;4.70;;
8572;SDS011;4324;42.012;24.872;2024-02-14T08:38:50;5.33;;;4.53;;
8572;SDS011;4324;42.012;24.872;2024-02-14T08:41:20;6.63;;;5.00;;
8572;SDS011;4324;42.012;24.872;2024-02-14T08:43:49;5.33;;;4.50;;
8572;SDS011;4324;42.012;24.872;2024-02-14T08:46:18;6.63;;;4.70;;
8572;SDS011;4324;42.012;24.872;2024-02-14T08:48:46;3.50;;;3.17;;
8572;SDS011;4324;42.012;24.872;2024-02-14T08:51:14;14.43;;;3.23;;
8572;SDS011;4324;42.012;24.872;2024-02-14T08:53:42;5.60;;;4.17;;
8572;SDS011;4324;42.012;24.872;2024-02-14T08:56:18;10.37;;;4.80;;
8572;SDS011;4324;42.012;24.872;2024-02-14T08:58:45;5.50;;;4.23;;
8572;SDS011;4324;42.012;24.872;2024-02-14T09:01:16;9.87;;;5.03;;
8572;SDS011;4324;42.012;24.872;2024-02-14T09:03:46;5.40;;;4.83;;
8572;SDS011;4324;42.012;24.872;2024-02-14T09:06:13;5.10;;;4.17;;
8572;SDS011;4324;42.012;24.872;2024-02-14T09:08:41;5.70;;;4.73;;
8572;SDS011;4324;42.012;24.872;2024-02-14T09:11:15;5.83;;;5.30;;
8572;SDS011;4324;42.012;24.872;2024-02-14T09:13:43;5.13;;;4.57;;
8572;SDS011;4324;42.012;24.872;2024-02-14T09:16:13;7.87;;;5.60;;
8572;SDS011;4324;42.012;24.872;2024-02-14T09:18:44;6.90;;;5.47;;
8572;SDS011;4324;42.012;24.872;2024-02-14T09:21:15;6.47;;;5.00;;
8572;SDS011;4324;42.012;24.872;2024-02-14T09:23:43;5.77;;;5.17;;
8572;SDS011;4324;42.012;24.872;2024-02-14T09:26:13;7.13;;;5.40;;
8572;SDS011;4324;42.012;24.872;2024-02-14T09:28:42;6.30;;;5.70;;
8572;SDS011;4324;42.012;24.872;2024-02-14T09:31:18;5.53;;;5.03;;
8572;SDS011;4324;42.012;24.872;2024-02-14T09:33:47;6.87;;;6.13;;
8572;SDS011;4324;42.012;24.872;2024-02-14T09:36:15;5.53;;;5.03;;
8572;SDS011;4324;42.012;24.872;2024-02-14T09:38:44;7.20;;;6.50;;
8572;SDS011;4324;42.012;24.872;2024-02-14T09:41:14;6.63;;;6.03;;
8572;SDS011;4324;42.012;24.872;2024-02-14T09:43:46;7.20;;;6.50;;
8572;SDS011;4324;42.012;24.872;2024-02-14T09:46:13;7.67;;;6.97;;
8572;SDS011;4324;42.012;24.872;2024-02-14T09:48:42;6.77;;;6.17;;
8572;SDS011;4324;42.012;24.872;2024-02-14T09:51:12;7.00;;;6.30;;
8572;SDS011;4324;42.012;24.872;2024-02-14T09:53:39;12.87;;;9.67;;
8572;SDS011;4324;42.012;24.872;2024-02-14T09:56:08;19.50;;;13.93;;
8572;SDS011;4324;42.012;24.872;2024-02-14T09:58:38;7.40;;;6.70;;
8572;SDS011;4324;42.012;24.872;2024-02-14T10:01:07;6.57;;;5.60;;
8572;SDS011;4324;42.012;24.872;2024-02-14T10:03:34;6.87;;;6.27;;
8572;SDS011;4324;42.012;24.872;2024-02-14T10:06:02;8.07;;;7.23;;
8572;SDS011;4324;42.012;24.872;2024-02-14T10:08:31;9.93;;;8.93;;
8572;SDS011;4324;42.012;24.872;2024-02-14T10:10:59;7.63;;;6.93;;
8572;SDS011;4324;42.012;24.872;2024-02-14T10:13:29;9.07;;;7.87;;
8572;SDS011;4324;42.012;24.872;2024-02-14T10:15:57;9.70;;;7.87;;
8572;SDS011;4324;42.012;24.872;2024-02-14T10:18:24;8.93;;;8.03;;
8572;SDS011;4324;42.012;24.872;2024-02-14T10:20:52;8.00;;;7.20;;
8572;SDS011;4324;42.012;24.872;2024-02-14T10:23:20;7.70;;;7.00;;
8572;SDS011;4324;42.012;24.872;2024-02-14T10:25:52;7.67;;;6.97;;
8572;SDS011;4324;42.012;24.872;2024-02-14T10:28:21;9.10;;;8.30;;
8572;SDS011;4324;42.012;24.872;2024-02-14T10:30:49;7.63;;;6.83;;
8572;SDS011;4324;42.012;24.872;2024-02-14T10:33:17;11.73;;;10.73;;
8572;SDS011;4324;42.012;24.872;2024-02-14T10:35:45;7.87;;;7.07;;
8572;SDS011;4324;42.012;24.872;2024-02-14T10:38:16;6.87;;;5.47;;
8572;SDS011;4324;42.012;24.872;2024-02-14T10:40:46;6.90;;;6.30;;
8572;SDS011;4324;42.012;24.872;2024-02-14T10:43:16;6.83;;;6.23;;
8572;SDS011;4324;42.012;24.872;2024-02-14T10:45:44;7.43;;;6.73;;
8572;SDS011;4324;42.012;24.872;2024-02-14T10:48:12;8.73;;;7.83;;
8572;SDS011;4324;42.012;24.872;2024-02-14T10:50:42;7.17;;;6.03;;
8572;SDS011;4324;42.012;24.872;2024-02-14T10:53:13;8.80;;;7.90;;
8572;SDS011;4324;42.012;24.872;2024-02-14T10:55:41;8.53;;;7.73;;
8572;SDS011;4324;42.012;24.872;2024-02-14T10:58:16;7.17;;;6.47;;
8572;SDS011;4324;42.012;24.872;2024-02-14T11:00:44;10.77;;;9.37;;
8572;SDS011;4324;42.012;24.872;2024-02-14T11:03:13;8.60;;;7.70;;
8572;SDS011;4324;42.012;24.872;2024-02-14T11:05:44;8.40;;;7.47;;
8572;SDS011;4324;42.012;24.872;2024-02-14T11:08:13;7.10;;;6.40;;
8572;SDS011;4324;42.012;24.872;2024-02-14T11:10:41;7.60;;;6.10;;
8572;SDS011;4324;42.012;24.872;2024-02-14T11:13:12;9.20;;;7.33;;
8572;SDS011;4324;42.012;24.872;2024-02-14T11:15:44;12.07;;;7.47;;
8572;SDS011;4324;42.012;24.872;2024-02-14T11:18:14;7.60;;;6.80;;
8572;SDS011;4324;42.012;24.872;2024-02-14T11:20:55;8.80;;;7.90;;
8572;SDS011;4324;42.012;24.872;2024-02-14T11:23:23;10.03;;;9.03;;
8572;SDS011;4324;42.012;24.872;2024-02-14T11:25:59;10.13;;;6.07;;
8572;SDS011;4324;42.012;24.872;2024-02-14T11:28:27;6.70;;;5.93;;
8572;SDS011;4324;42.012;24.872;2024-02-14T11:31:01;9.07;;;6.70;;
8572;SDS011;4324;42.012;24.872;2024-02-14T11:33:31;10.23;;;6.27;;
8572;SDS011;4324;42.012;24.872;2024-02-14T11:35:59;8.33;;;6.63;;
8572;SDS011;4324;42.012;24.872;2024-02-14T11:38:35;18.80;;;10.63;;
8572;SDS011;4324;42.012;24.872;2024-02-14T11:41:03;11.17;;;7.67;;
8572;SDS011;4324;42.012;24.872;2024-02-14T11:43:31;7.73;;;6.97;;
8572;SDS011;4324;42.012;24.872;2024-02-14T11:46:00;7.17;;;6.40;;
8572;SDS011;4324;42.012;24.872;2024-02-14T11:48:29;8.73;;;6.70;;
8572;SDS011;4324;42.012;24.872;2024-02-14T11:50:57;6.20;;;5.03;;
8572;SDS011;4324;42.012;24.872;2024-02-14T11:53:33;6.23;;;4.60;;
8572;SDS011;4324;42.012;24.872;2024-02-14T11:56:01;8.83;;;6.13;;
8572;SDS011;4324;42.012;24.872;2024-02-14T11:58:29;7.20;;;6.30;;
8572;SDS011;4324;42.012;24.872;2024-02-14T12:00:57;8.83;;;4.80;;
8572;SDS011;4324;42.012;24.872;2024-02-14T12:03:31;12.00;;;6.10;;
8572;SDS011;4324;42.012;24.872;2024-02-14T12:06:00;5.70;;;5.20;;
8572;SDS011;4324;42.012;24.872;2024-02-14T12:08:28;5.37;;;4.67;;
8572;SDS011;4324;42.012;24.872;2024-02-14T12:10:56;9.90;;;5.83;;
8572;SDS011;4324;42.012;24.872;2024-02-14T12:13:24;5.80;;;5.17;;
8572;SDS011;4324;42.012;24.872;2024-02-14T12:15:51;6.47;;;5.83;;
8572;SDS011;4324;42.012;24.872;2024-02-14T12:18:20;4.90;;;4.23;;
8572;SDS011;4324;42.012;24.872;2024-02-14T12:20:48;10.60;;;5.47;;
8572;SDS011;4324;42.012;24.872;2024-02-14T12:23:16;5.40;;;4.90;;
8572;SDS011;4324;42.012;24.872;2024-02-14T12:26:03;6.07;;;5.53;;
8572;SDS011;4324;42.012;24.872;2024-02-14T12:28:41;5.53;;;5.03;;
8572;SDS011;4324;42.012;24.872;2024-02-14T12:31:43;6.43;;;5.70;;
8572;SDS011;4324;42.012;24.872;2024-02-14T12:34:13;7.03;;;5.20;;
8572;SDS011;4324;42.012;24.872;2024-02-14T12:36:43;6.37;;;5.83;;
8572;SDS011;4324;42.012;24.872;2024-02-14T12:39:11;5.87;;;5.37;;
8572;SDS011;4324;42.012;24.872;2024-02-14T12:41:41;7.20;;;6.17;;
8572;SDS011;4324;42.012;24.872;2024-02-14T12:44:08;5.53;;;4.87;;
8572;SDS011;4324;42.012;24.872;2024-02-14T12:46:35;6.27;;;5.53;;
8572;SDS011;4324;42.012;24.872;2024-02-14T12:49:03;7.47;;;5.57;;
8572;SDS011;4324;42.012;24.872;2024-02-14T12:51:32;5.93;;;5.43;;
8572;SDS011;4324;42.012;24.872;2024-02-14T12:54:01;6.67;;;5.77;;
8572;SDS011;4324;42.012;24.872;2024-02-14T12:56:29;6.40;;;5.20;;
8572;SDS011;4324;42.012;24.872;2024-02-14T12:58:56;6.63;;;5.70;;
8572;SDS011;4324;42.012;24.872;2024-02-14T13:01:25;7.10;;;5.90;;
8572;SDS011;4324;42.012;24.872;2024-02-14T13:03:52;7.97;;;7.13;;
8572;SDS011;4324;42.012;24.872;2024-02-14T13:06:19;16.93;;;10.43;;
8572;SDS011;4324;42.012;24.872;2024-02-14T13:08:49;8.87;;;7.97;;
8572;SDS011;4324;42.012;24.872;2024-02-14T13:11:16;7.40;;;6.67;;
8572;SDS011;4324;42.012;24.872;2024-02-14T13:13:44;6.57;;;4.97;;
8572;SDS011;4324;42.012;24.872;2024-02-14T13:16:17;9.23;;;8.00;;
8572;SDS011;4324;42.012;24.872;2024-02-14T13:19:04;12.00;;;9.47;;
8572;SDS011;4324;42.012;24.872;2024-02-14T13:21:33;6.00;;;5.40;;
8572;SDS011;4324;42.012;24.872;2024-02-14T13:24:02;10.20;;;9.00;;
8572;SDS011;4324;42.012;24.872;2024-02-14T13:26:30;5.60;;;5.10;;
8572;SDS011;4324;42.012;24.872;2024-02-14T13:28:56;4.67;;;4.27;;
8572;SDS011;4324;42.012;24.872;2024-02-14T13:31:23;5.47;;;4.77;;
8572;SDS011;4324;42.012;24.872;2024-02-14T13:33:51;6.07;;;5.47;;
8572;SDS011;4324;42.012;24.872;2024-02-14T13:36:17;5.80;;;5.30;;
8572;SDS011;4324;42.012;24.872;2024-02-14T13:38:45;6.63;;;5.70;;
8572;SDS011;4324;42.012;24.872;2024-02-14T13:41:14;6.70;;;5.30;;
8572;SDS011;4324;42.012;24.872;2024-02-14T13:43:41;5.93;;;5.17;;
8572;SDS011;4324;42.012;24.872;2024-02-14T13:46:08;5.47;;;4.13;;
8572;SDS011;4324;42.012;24.872;2024-02-14T13:48:36;8.33;;;5.50;;
8572;SDS011;4324;42.012;24.872;2024-02-14T13:51:03;5.90;;;5.40;;
8572;SDS011;4324;42.012;24.872;2024-02-14T13:53:30;9.67;;;5.53;;
8572;SDS011;4324;42.012;24.872;2024-02-14T13:55:58;7.73;;;6.40;;
8572;SDS011;4324;42.012;24.872;2024-02-14T13:58:26;7.10;;;5.80;;
8572;SDS011;4324;42.012;24.872;2024-02-14T14:00:53;5.43;;;4.87;;
8572;SDS011;4324;42.012;24.872;2024-02-14T14:03:21;6.60;;;5.73;;
8572;SDS011;4324;42.012;24.872;2024-02-14T14:05:48;9.07;;;5.73;;
8572;SDS011;4324;42.012;24.872;2024-02-14T14:08:15;4.73;;;4.20;;
8572;SDS011;4324;42.012;24.872;2024-02-14T14:10:42;9.20;;;6.27;;
8572;SDS011;4324;42.012;24.872;2024-02-14T14:13:10;5.77;;;5.27;;
8572;SDS011;4324;42.012;24.872;2024-02-14T14:15:40;6.73;;;5.70;;
8572;SDS011;4324;42.012;24.872;2024-02-14T14:18:07;5.80;;;5.30;;
8572;SDS011;4324;42.012;24.872;2024-02-14T14:20:36;7.83;;;5.10;;
8572;SDS011;4324;42.012;24.872;2024-02-14T14:23:03;7.87;;;5.40;;
8572;SDS011;4324;42.012;24.872;2024-02-14T14:25:31;6.30;;;5.70;;
8572;SDS011;4324;42.012;24.872;2024-02-14T14:27:59;6.63;;;6.03;;
8572;SDS011;4324;42.012;24.872;2024-02-14T14:30:27;6.07;;;5.47;;
8572;SDS011;4324;42.012;24.872;2024-02-14T14:32:56;6.73;;;6.10;;
8572;SDS011;4324;42.012;24.872;2024-02-14T14:35:22;6.17;;;5.00;;
8572;SDS011;4324;42.012;24.872;2024-02-14T14:37:50;5.50;;;4.83;;
8572;SDS011;4324;42.012;24.872;2024-02-14T14:40:19;6.00;;;5.40;;
8572;SDS011;4324;42.012;24.872;2024-02-14T14:42:48;6.50;;;5.90;;
8572;SDS011;4324;42.012;24.872;2024-02-14T14:45:18;9.63;;;7.53;;
8572;SDS011;4324;42.012;24.872;2024-02-14T14:47:45;19.30;;;14.20;;
8572;SDS011;4324;42.012;24.872;2024-02-14T14:50:15;14.00;;;8.80;;
8572;SDS011;4324;42.012;24.872;2024-02-14T14:52:52;8.40;;;6.10;;
8572;SDS011;4324;42.012;24.872;2024-02-14T14:55:20;13.57;;;10.63;;
8572;SDS011;4324;42.012;24.872;2024-02-14T14:57:49;9.23;;;7.37;;
8572;SDS011;4324;42.012;24.872;2024-02-14T15:00:17;8.07;;;5.90;;
8572;SDS011;4324;42.012;24.872;2024-02-14T15:02:44;10.43;;;8.07;;
8572;SDS011;4324;42.012;24.872;2024-02-14T15:05:12;10.50;;;8.30;;
8572;SDS011;4324;42.012;24.872;2024-02-14T15:07:41;7.53;;;6.33;;
8572;SDS011;4324;42.012;24.872;2024-02-14T15:10:08;8.03;;;6.90;;